createdAt,value
2018-05-01T00:00:56.205Z,11.23
2018-05-01T00:02:23.649Z,11.22
2018-05-01T00:03:51.659Z,11.22
2018-05-01T00:05:17.686Z,11.21
2018-05-01T00:06:45.939Z,11.21
2018-05-01T00:08:12.336Z,11.21
2018-05-01T00:09:40.869Z,11.21
2018-05-01T00:11:07.133Z,11.22
2018-05-01T00:12:34.585Z,11.21
2018-05-01T00:14:01.792Z,11.21
2018-05-01T00:15:30.105Z,11.19
2018-05-01T00:16:56.455Z,11.14
2018-05-01T00:18:24.722Z,11.11
2018-05-01T00:19:50.903Z,11.11
2018-05-01T00:21:18.068Z,11.12
2018-05-01T00:22:46.381Z,11.13
2018-05-01T00:24:12.856Z,11.13
2018-05-01T00:25:40.278Z,11.14
2018-05-01T00:27:07.531Z,11.15
2018-05-01T00:28:34.966Z,11.15
2018-05-01T00:30:02.312Z,11.14
2018-05-01T00:31:30.680Z,11.14
2018-05-01T00:32:56.775Z,11.15
2018-05-01T00:34:24.013Z,11.16
2018-05-01T00:35:52.382Z,11.14
2018-05-01T00:37:18.664Z,11.09
2018-05-01T00:38:46.904Z,11.03
2018-05-01T00:40:13.219Z,10.99
2018-05-01T00:41:40.608Z,10.98
2018-05-01T00:43:09.004Z,11.00
2018-05-01T00:44:36.331Z,10.94
2018-05-01T00:46:02.671Z,10.94
2018-05-01T00:47:29.993Z,10.94
2018-05-01T00:48:58.197Z,10.91
2018-05-01T00:50:25.716Z,10.92
2018-05-01T00:51:51.879Z,10.90
2018-05-01T00:53:19.256Z,10.78
2018-05-01T00:54:46.421Z,10.71
2018-05-01T00:56:13.627Z,10.71
2018-05-01T00:57:41.878Z,10.70
2018-05-01T00:59:09.369Z,10.70
2018-05-01T01:00:35.156Z,10.73
2018-05-01T01:02:03.384Z,10.76
2018-05-01T01:03:29.544Z,10.79
2018-05-01T01:04:56.792Z,10.81
2018-05-01T01:06:24.132Z,10.83
2018-05-01T01:07:52.461Z,10.86
2018-05-01T01:09:19.664Z,10.87
2018-05-01T01:10:45.774Z,10.87
2018-05-01T01:12:14.265Z,10.88
2018-05-01T01:13:40.626Z,10.88
2018-05-01T01:15:07.794Z,10.89
2018-05-01T01:16:35.188Z,10.91
2018-05-01T01:18:03.705Z,10.94
2018-05-01T01:19:29.850Z,10.97
2018-05-01T01:20:57.135Z,11.00
2018-05-01T01:22:24.367Z,11.02
2018-05-01T01:23:52.639Z,11.03
2018-05-01T01:25:18.832Z,11.03
2018-05-01T01:26:47.224Z,11.02
2018-05-01T01:28:13.496Z,11.02
2018-05-01T01:29:41.849Z,11.00
2018-05-01T01:31:09.337Z,10.97
2018-05-01T01:32:35.350Z,10.95
2018-05-01T01:34:03.709Z,10.94
2018-05-01T01:35:30.014Z,10.95
2018-05-01T01:36:57.191Z,10.94
2018-05-01T01:38:25.764Z,10.93
2018-05-01T01:39:51.995Z,10.95
2018-05-01T01:41:19.113Z,10.96
2018-05-01T01:42:46.447Z,10.97
2018-05-01T01:44:13.778Z,10.98
2018-05-01T01:45:41.040Z,11.00
2018-05-01T01:47:08.466Z,11.01
2018-05-01T01:48:35.859Z,11.03
2018-05-01T01:50:03.125Z,11.04
2018-05-01T01:51:31.623Z,11.05
2018-05-01T01:52:57.851Z,11.07
2018-05-01T01:54:26.103Z,11.07
2018-05-01T01:55:52.528Z,11.06
2018-05-01T01:57:26.021Z,11.05
2018-05-01T01:58:47.637Z,11.06
2018-05-01T02:00:14.075Z,11.05
2018-05-01T02:01:42.463Z,11.06
2018-05-01T02:03:08.561Z,11.06
2018-05-01T02:04:35.952Z,11.07
2018-05-01T02:06:04.368Z,11.05
2018-05-01T02:07:31.661Z,11.04
2018-05-01T02:08:57.919Z,11.03
2018-05-01T02:10:25.279Z,11.03
2018-05-01T02:11:53.702Z,11.01
2018-05-01T02:13:19.968Z,11.01
2018-05-01T02:14:47.300Z,11.01
2018-05-01T02:16:14.633Z,11.01
2018-05-01T02:17:43.252Z,11.02
2018-05-01T02:19:09.568Z,11.01
2018-05-01T02:20:36.967Z,11.01
2018-05-01T02:22:04.246Z,11.00
2018-05-01T02:23:31.490Z,10.99
2018-05-01T02:24:58.673Z,10.98
2018-05-01T02:26:26.125Z,10.99
2018-05-01T02:27:53.515Z,10.98
2018-05-01T02:29:21.785Z,10.98
2018-05-01T02:30:49.121Z,10.99
2018-05-01T02:32:15.329Z,10.98
2018-05-01T02:33:42.711Z,10.99
2018-05-01T02:35:10.056Z,11.00
2018-05-01T02:36:37.325Z,11.02
2018-05-01T02:38:05.617Z,11.04
2018-05-01T02:39:33.109Z,11.06
2018-05-01T02:41:00.358Z,11.07
2018-05-01T02:42:27.484Z,11.07
2018-05-01T02:43:54.944Z,11.08
2018-05-01T02:45:21.102Z,11.10
2018-05-01T02:46:48.183Z,11.10
2018-05-01T02:48:15.597Z,11.10
2018-05-01T02:49:43.889Z,11.10
2018-05-01T02:51:11.195Z,11.10
2018-05-01T02:52:37.543Z,11.10
2018-05-01T02:54:04.827Z,11.10
2018-05-01T02:55:32.087Z,11.10
2018-05-01T02:57:00.404Z,11.11
2018-05-01T02:58:26.708Z,11.14
2018-05-01T02:59:54.060Z,11.16
2018-05-01T03:01:21.441Z,11.18
2018-05-01T03:02:49.575Z,11.18
2018-05-01T03:04:15.959Z,11.18
2018-05-01T03:05:44.428Z,11.19
2018-05-01T03:07:10.759Z,11.20
2018-05-01T03:08:38.180Z,11.20
2018-05-01T03:10:05.416Z,11.20
2018-05-01T03:11:32.752Z,11.19
2018-05-01T03:13:01.189Z,11.20
2018-05-01T03:14:27.504Z,11.19
2018-05-01T03:15:54.611Z,11.18
2018-05-01T03:17:22.842Z,11.18
2018-05-01T03:18:49.035Z,11.17
2018-05-01T03:20:16.451Z,11.18
2018-05-01T03:21:43.776Z,11.19
2018-05-01T03:23:12.200Z,11.19
2018-05-01T03:24:38.481Z,11.20
2018-05-01T03:26:05.870Z,11.18
2018-05-01T03:27:34.238Z,11.17
2018-05-01T03:29:00.523Z,11.15
2018-05-01T03:30:28.691Z,11.16
2018-05-01T03:31:55.910Z,11.16
2018-05-01T03:33:22.261Z,11.17
2018-05-01T03:34:50.137Z,11.18
2018-05-01T03:36:16.479Z,11.19
2018-05-01T03:37:43.696Z,11.17
2018-05-01T03:39:11.030Z,11.17
2018-05-01T03:40:38.290Z,11.17
2018-05-01T03:42:06.667Z,11.16
2018-05-01T03:43:32.975Z,11.16
2018-05-01T03:45:01.357Z,11.17
2018-05-01T03:46:28.558Z,11.18
2018-05-01T03:47:54.909Z,11.19
2018-05-01T03:49:22.046Z,11.21
2018-05-01T03:50:49.383Z,11.23
2018-05-01T03:52:22.371Z,11.25
2018-05-01T03:53:43.787Z,11.26
2018-05-01T03:55:11.130Z,11.28
2018-05-01T03:56:38.391Z,11.27
2018-05-01T03:58:05.691Z,11.27
2018-05-01T03:59:33.092Z,11.28
2018-05-01T04:01:01.457Z,11.29
2018-05-01T04:02:28.934Z,11.31
2018-05-01T04:03:55.989Z,11.31
2018-05-01T04:05:22.098Z,11.30
2018-05-01T04:06:50.469Z,11.29
2018-05-01T04:08:16.945Z,11.28
2018-05-01T04:09:44.176Z,11.26
2018-05-01T04:11:11.508Z,11.25
2018-05-01T04:12:38.470Z,11.25
2018-05-01T04:14:05.399Z,11.21
2018-05-01T04:15:32.720Z,11.21
2018-05-01T04:17:00.806Z,11.21
2018-05-01T04:18:27.728Z,11.22
2018-05-01T04:19:54.119Z,11.23
2018-05-01T04:21:22.315Z,11.25
2018-05-01T04:22:48.614Z,11.27
2018-05-01T04:24:15.895Z,11.27
2018-05-01T04:25:43.364Z,11.28
2018-05-01T04:27:10.806Z,11.31
2018-05-01T04:28:37.822Z,11.32
2018-05-01T04:30:04.980Z,11.33
2018-05-01T04:31:33.432Z,11.35
2018-05-01T04:33:00.826Z,11.37
2018-05-01T04:34:28.230Z,11.39
2018-05-01T04:35:55.173Z,11.41
2018-05-01T04:37:21.355Z,11.42
2018-05-01T04:38:49.651Z,11.42
2018-05-01T04:40:16.967Z,11.43
2018-05-01T04:41:44.228Z,11.46
2018-05-01T04:43:11.430Z,11.48
2018-05-01T04:44:38.555Z,11.51
2018-05-01T04:46:05.823Z,11.55
2018-05-01T04:47:33.137Z,11.60
2018-05-01T04:49:00.449Z,11.65
2018-05-01T04:50:26.750Z,11.69
2018-05-01T04:51:54.111Z,11.74
2018-05-01T04:53:22.394Z,11.79
2018-05-01T04:54:48.424Z,11.83
2018-05-01T04:56:15.733Z,11.85
2018-05-01T04:57:43.023Z,11.88
2018-05-01T04:59:10.308Z,11.91
2018-05-01T05:00:37.676Z,11.93
2018-05-01T05:02:04.585Z,11.95
2018-05-01T05:03:31.825Z,11.96
2018-05-01T05:05:00.156Z,11.96
2018-05-01T05:06:27.357Z,11.98
2018-05-01T05:07:53.811Z,11.98
2018-05-01T05:09:22.017Z,12.00
2018-05-01T05:10:49.403Z,12.04
2018-05-01T05:12:16.859Z,12.05
2018-05-01T05:13:43.157Z,12.04
2018-05-01T05:15:10.480Z,12.05
2018-05-01T05:16:37.970Z,12.04
2018-05-01T05:18:05.038Z,12.05
2018-05-01T05:19:33.580Z,12.06
2018-05-01T05:20:59.951Z,12.10
2018-05-01T05:22:27.292Z,12.14
2018-05-01T05:23:54.024Z,12.19
2018-05-01T05:25:21.277Z,12.22
2018-05-01T05:26:48.650Z,12.23
2018-05-01T05:28:17.137Z,12.25
2018-05-01T05:29:44.264Z,12.26
2018-05-01T05:31:11.568Z,12.27
2018-05-01T05:32:40.774Z,12.30
2018-05-01T05:34:06.145Z,12.34
2018-05-01T05:35:32.307Z,12.37
2018-05-01T05:36:59.479Z,12.41
2018-05-01T05:38:27.600Z,12.47
2018-05-01T05:39:55.123Z,12.52
2018-05-01T05:41:22.371Z,12.58
2018-05-01T05:42:49.574Z,12.65
2018-05-01T05:44:16.005Z,12.74
2018-05-01T05:45:44.352Z,12.84
2018-05-01T05:47:10.833Z,12.94
2018-05-01T05:48:38.232Z,13.02
2018-05-01T05:50:06.500Z,13.08
2018-05-01T05:51:32.802Z,13.10
2018-05-01T05:53:01.290Z,13.14
2018-05-01T05:54:28.422Z,13.18
2018-05-01T05:55:55.709Z,13.28
2018-05-01T05:57:23.129Z,13.27
2018-05-01T05:58:49.380Z,13.14
2018-05-01T06:00:16.773Z,13.15
2018-05-01T06:01:44.131Z,13.25
2018-05-01T06:03:12.644Z,13.36
2018-05-01T06:04:38.783Z,13.47
2018-05-01T06:06:07.174Z,13.48
2018-05-01T06:07:34.637Z,13.44
2018-05-01T06:09:00.906Z,13.36
2018-05-01T06:10:28.272Z,13.30
2018-05-01T06:11:55.772Z,13.29
2018-05-01T06:13:23.927Z,13.30
2018-05-01T06:14:50.246Z,13.27
2018-05-01T06:16:18.573Z,13.29
2018-05-01T06:17:44.816Z,13.34
2018-05-01T06:19:13.121Z,13.37
2018-05-01T06:20:39.253Z,13.41
2018-05-01T06:22:06.533Z,13.45
2018-05-01T06:23:33.803Z,13.46
2018-05-01T06:25:02.160Z,13.41
2018-05-01T06:26:28.468Z,13.42
2018-05-01T06:27:55.675Z,13.42
2018-05-01T06:29:26.174Z,13.40
2018-05-01T06:30:51.237Z,13.43
2018-05-01T06:32:18.245Z,13.46
2018-05-01T06:33:44.708Z,13.48
2018-05-01T06:35:12.183Z,13.42
2018-05-01T06:36:39.590Z,13.35
2018-05-01T06:38:07.132Z,13.28
2018-05-01T06:39:34.410Z,13.23
2018-05-01T06:41:01.796Z,13.21
2018-05-01T06:42:29.141Z,13.16
2018-05-01T06:43:56.557Z,13.12
2018-05-01T06:45:23.784Z,13.12
2018-05-01T06:46:51.811Z,13.11
2018-05-01T06:48:20.980Z,13.08
2018-05-01T06:49:46.347Z,13.07
2018-05-01T06:51:12.540Z,13.10
2018-05-01T06:52:40.866Z,13.17
2018-05-01T06:54:07.253Z,13.17
2018-05-01T06:55:34.589Z,13.17
2018-05-01T06:57:02.081Z,13.16
2018-05-01T06:58:30.476Z,13.18
2018-05-01T06:59:56.720Z,13.22
2018-05-01T07:01:23.861Z,13.20
2018-05-01T07:02:51.415Z,13.23
2018-05-01T07:04:18.667Z,13.26
2018-05-01T07:05:45.769Z,13.24
2018-05-01T07:07:13.166Z,13.15
2018-05-01T07:08:41.515Z,13.11
2018-05-01T07:10:08.914Z,13.06
2018-05-01T07:11:36.203Z,13.00
2018-05-01T07:13:02.570Z,12.96
2018-05-01T07:14:31.121Z,12.92
2018-05-01T07:15:57.392Z,12.90
2018-05-01T07:17:25.626Z,12.86
2018-05-01T07:18:52.836Z,12.86
2018-05-01T07:20:19.211Z,12.87
2018-05-01T07:21:47.631Z,12.80
2018-05-01T07:23:14.618Z,12.77
2018-05-01T07:24:41.998Z,12.74
2018-05-01T07:26:08.042Z,12.74
2018-05-01T07:27:35.438Z,12.78
2018-05-01T07:29:02.795Z,12.80
2018-05-01T07:30:30.151Z,12.85
2018-05-01T07:31:57.588Z,12.83
2018-05-01T07:33:24.853Z,12.89
2018-05-01T07:34:52.011Z,12.89
2018-05-01T07:36:19.211Z,12.86
2018-05-01T07:37:47.746Z,12.90
2018-05-01T07:39:13.950Z,12.97
2018-05-01T07:40:41.298Z,12.96
2018-05-01T07:42:08.498Z,12.90
2018-05-01T07:43:35.836Z,12.90
2018-05-01T07:45:03.075Z,12.91
2018-05-01T07:46:30.396Z,12.90
2018-05-01T07:47:57.974Z,12.93
2018-05-01T07:49:25.225Z,12.96
2018-05-01T07:50:52.588Z,12.94
2018-05-01T07:52:19.872Z,12.92
2018-05-01T07:53:48.438Z,12.95
2018-05-01T07:55:15.763Z,12.93
2018-05-01T07:56:42.952Z,12.89
2018-05-01T07:58:10.461Z,12.85
2018-05-01T07:59:36.536Z,12.82
2018-05-01T08:01:03.953Z,12.79
2018-05-01T08:02:32.299Z,12.78
2018-05-01T08:03:58.504Z,12.81
2018-05-01T08:05:25.864Z,12.88
2018-05-01T08:06:53.348Z,12.97
2018-05-01T08:08:21.581Z,12.99
2018-05-01T08:09:47.596Z,12.96
2018-05-01T08:11:14.898Z,12.93
2018-05-01T08:12:42.368Z,12.87
2018-05-01T08:14:09.662Z,12.82
2018-05-01T08:15:37.140Z,12.79
2018-05-01T08:17:05.431Z,12.82
2018-05-01T08:18:32.843Z,12.85
2018-05-01T08:19:59.071Z,12.89
2018-05-01T08:21:27.533Z,12.96
2018-05-01T08:22:54.622Z,13.03
2018-05-01T08:24:21.086Z,13.06
2018-05-01T08:25:48.341Z,13.08
2018-05-01T08:27:15.697Z,13.11
2018-05-01T08:28:42.822Z,13.12
2018-05-01T08:30:11.241Z,13.20
2018-05-01T08:31:38.545Z,13.32
2018-05-01T08:33:06.037Z,13.39
2018-05-01T08:34:33.420Z,13.42
2018-05-01T08:36:00.962Z,13.43
2018-05-01T08:37:28.193Z,13.31
2018-05-01T08:38:55.644Z,13.25
2018-05-01T08:40:22.952Z,13.21
2018-05-01T08:41:49.955Z,13.16
2018-05-01T08:43:16.261Z,13.13
2018-05-01T08:44:43.483Z,13.14
2018-05-01T08:46:11.720Z,13.13
2018-05-01T08:47:38.016Z,13.11
2018-05-01T08:49:05.419Z,13.04
2018-05-01T08:50:32.984Z,12.99
2018-05-01T08:52:00.323Z,12.94
2018-05-01T08:53:27.811Z,12.86
2018-05-01T08:54:56.036Z,12.87
2018-05-01T08:56:22.308Z,12.97
2018-05-01T08:57:50.795Z,13.09
2018-05-01T08:59:17.077Z,13.18
2018-05-01T09:00:44.568Z,13.26
2018-05-01T09:02:11.906Z,13.30
2018-05-01T09:03:39.108Z,13.34
2018-05-01T09:05:07.612Z,13.40
2018-05-01T09:06:34.910Z,13.39
2018-05-01T09:08:01.200Z,13.37
2018-05-01T09:09:28.660Z,13.38
2018-05-01T09:10:57.034Z,13.37
2018-05-01T09:12:23.149Z,13.30
2018-05-01T09:13:51.574Z,13.28
2018-05-01T09:15:17.576Z,13.24
2018-05-01T09:16:45.062Z,13.17
2018-05-01T09:18:12.758Z,13.08
2018-05-01T09:19:41.111Z,13.05
2018-05-01T09:21:07.346Z,13.10
2018-05-01T09:22:34.787Z,13.12
2018-05-01T09:24:02.060Z,13.12
2018-05-01T09:25:29.442Z,13.10
2018-05-01T09:26:56.679Z,13.10
2018-05-01T09:28:25.004Z,13.09
2018-05-01T09:29:54.380Z,13.02
2018-05-01T09:31:18.557Z,13.00
2018-05-01T09:32:45.958Z,13.01
2018-05-01T09:34:14.303Z,13.01
2018-05-01T09:35:40.541Z,12.99
2018-05-01T09:37:08.973Z,12.95
2018-05-01T09:38:36.151Z,12.92
2018-05-01T09:40:03.783Z,12.84
2018-05-01T09:41:30.016Z,12.75
2018-05-01T09:42:57.320Z,12.71
2018-05-01T09:44:24.634Z,12.78
2018-05-01T09:45:51.995Z,12.83
2018-05-01T09:47:20.558Z,12.91
2018-05-01T09:48:46.815Z,12.99
2018-05-01T09:50:15.197Z,13.00
2018-05-01T09:51:42.604Z,12.94
2018-05-01T09:53:08.929Z,12.92
2018-05-01T09:54:36.354Z,12.90
2018-05-01T09:56:04.323Z,12.90
2018-05-01T09:57:30.610Z,12.94
2018-05-01T09:58:57.743Z,12.95
2018-05-01T10:00:25.113Z,12.93
2018-05-01T10:01:53.420Z,12.86
2018-05-01T10:03:19.798Z,12.77
2018-05-01T10:04:47.216Z,12.68
2018-05-01T10:06:14.298Z,12.66
2018-05-01T10:07:42.521Z,12.65
2018-05-01T10:09:08.951Z,12.68
2018-05-01T10:10:37.318Z,12.69
2018-05-01T10:12:03.716Z,12.67
2018-05-01T10:13:31.904Z,12.69
2018-05-01T10:14:59.375Z,12.67
2018-05-01T10:16:25.609Z,12.65
2018-05-01T10:17:52.900Z,12.58
2018-05-01T10:19:21.047Z,12.56
2018-05-01T10:20:48.446Z,12.55
2018-05-01T10:22:15.612Z,12.53
2018-05-01T10:23:42.895Z,12.49
2018-05-01T10:25:09.926Z,12.44
2018-05-01T10:26:37.203Z,12.42
2018-05-01T10:28:03.777Z,12.44
2018-05-01T10:29:30.963Z,12.45
2018-05-01T10:30:58.244Z,12.49
2018-05-01T10:32:26.493Z,12.56
2018-05-01T10:33:53.124Z,12.59
2018-05-01T10:35:20.403Z,12.57
2018-05-01T10:36:48.506Z,12.57
2018-05-01T10:38:14.949Z,12.57
2018-05-01T10:39:42.149Z,12.62
2018-05-01T10:41:09.447Z,12.65
2018-05-01T10:42:37.884Z,12.65
2018-05-01T10:44:05.095Z,12.67
2018-05-01T10:45:32.235Z,12.63
2018-05-01T10:46:58.483Z,12.62
2018-05-01T10:48:26.978Z,12.58
2018-05-01T10:49:53.153Z,12.54
2018-05-01T10:51:21.391Z,12.53
2018-05-01T10:52:48.618Z,12.56
2018-05-01T10:54:14.911Z,12.59
2018-05-01T10:55:43.297Z,12.59
2018-05-01T10:57:09.711Z,12.58
2018-05-01T10:58:36.850Z,12.62
2018-05-01T11:00:05.331Z,12.63
2018-05-01T11:01:32.624Z,12.63
2018-05-01T11:02:58.920Z,12.62
2018-05-01T11:04:27.230Z,12.60
2018-05-01T11:05:53.404Z,12.53
2018-05-01T11:07:21.776Z,12.45
2018-05-01T11:08:48.991Z,12.36
2018-05-01T11:10:16.380Z,12.25
2018-05-01T11:11:42.920Z,12.19
2018-05-01T11:13:11.245Z,12.13
2018-05-01T11:14:37.384Z,12.07
2018-05-01T11:16:05.767Z,12.01
2018-05-01T11:17:32.046Z,11.94
2018-05-01T11:19:00.280Z,11.87
2018-05-01T11:20:27.387Z,11.80
2018-05-01T11:21:54.651Z,11.80
2018-05-01T11:23:20.850Z,11.80
2018-05-01T11:24:47.789Z,11.81
2018-05-01T11:26:16.214Z,11.86
2018-05-01T11:27:42.475Z,11.89
2018-05-01T11:29:09.894Z,11.94
2018-05-01T11:30:37.065Z,11.96
2018-05-01T11:32:04.382Z,11.96
2018-05-01T11:33:31.720Z,11.95
2018-05-01T11:34:59.067Z,11.96
2018-05-01T11:36:26.451Z,11.98
2018-05-01T11:37:54.659Z,11.98
2018-05-01T11:39:22.084Z,11.96
2018-05-01T11:40:48.176Z,11.95
2018-05-01T11:42:16.380Z,11.95
2018-05-01T11:43:43.768Z,11.94
2018-05-01T11:45:10.215Z,11.95
2018-05-01T11:46:37.699Z,11.92
2018-05-01T11:48:06.008Z,11.91
2018-05-01T11:49:33.310Z,11.93
2018-05-01T11:50:59.599Z,11.93
2018-05-01T11:52:27.955Z,11.95
2018-05-01T11:53:55.355Z,11.95
2018-05-01T11:55:21.549Z,11.95
2018-05-01T11:56:49.976Z,11.96
2018-05-01T11:58:17.318Z,11.96
2018-05-01T11:59:43.140Z,11.97
2018-05-01T12:01:10.354Z,12.00
2018-05-01T12:02:37.849Z,12.01
2018-05-01T12:04:06.253Z,12.00
2018-05-01T12:05:32.447Z,12.00
2018-05-01T12:06:59.647Z,11.99
2018-05-01T12:08:27.038Z,11.98
2018-05-01T12:09:55.390Z,11.95
2018-05-01T12:11:22.741Z,11.90
2018-05-01T12:12:49.927Z,11.89
2018-05-01T12:14:17.165Z,11.87
2018-05-01T12:15:44.498Z,11.85
2018-05-01T12:17:10.953Z,11.79
2018-05-01T12:18:37.926Z,11.76
2018-05-01T12:20:06.340Z,11.74
2018-05-01T12:21:32.324Z,11.71
2018-05-01T12:23:00.518Z,11.69
2018-05-01T12:24:27.986Z,11.69
2018-05-01T12:25:55.313Z,11.68
2018-05-01T12:27:22.207Z,11.69
2018-05-01T12:28:48.270Z,11.70
2018-05-01T12:30:16.576Z,11.70
2018-05-01T12:31:43.928Z,11.69
2018-05-01T12:33:10.060Z,11.69
2018-05-01T12:34:38.346Z,11.69
2018-05-01T12:36:05.511Z,11.69
2018-05-01T12:37:31.715Z,11.67
2018-05-01T12:39:00.003Z,11.66
2018-05-01T12:40:27.277Z,11.64
2018-05-01T12:41:54.128Z,11.61
2018-05-01T12:43:20.404Z,11.57
2018-05-01T12:44:47.650Z,11.53
2018-05-01T12:46:14.969Z,11.50
2018-05-01T12:47:43.345Z,11.46
2018-05-01T12:49:09.759Z,11.43
2018-05-01T12:50:37.110Z,11.42
2018-05-01T12:52:04.414Z,11.41
2018-05-01T12:53:32.658Z,11.41
2018-05-01T12:54:59.015Z,11.44
2018-05-01T12:56:26.395Z,11.44
2018-05-01T12:57:53.645Z,11.46
2018-05-01T12:59:20.766Z,11.46
2018-05-01T13:00:48.021Z,11.43
2018-05-01T13:02:16.329Z,11.43
2018-05-01T13:03:42.451Z,11.45
2018-05-01T13:05:10.757Z,11.45
2018-05-01T13:06:37.068Z,11.44
2018-05-01T13:08:05.417Z,11.42
2018-05-01T13:09:32.839Z,11.42
2018-05-01T13:10:59.336Z,11.40
2018-05-01T13:12:27.467Z,11.39
2018-05-01T13:13:53.322Z,11.36
2018-05-01T13:15:21.620Z,11.35
2018-05-01T13:16:47.694Z,11.35
2018-05-01T13:18:15.083Z,11.33
2018-05-01T13:19:42.348Z,11.28
2018-05-01T13:21:09.702Z,11.26
2018-05-01T13:22:38.168Z,11.25
2018-05-01T13:24:05.293Z,11.24
2018-05-01T13:25:31.312Z,11.25
2018-05-01T13:26:59.688Z,11.26
2018-05-01T13:28:25.783Z,11.27
2018-05-01T13:29:54.031Z,11.26
2018-05-01T13:31:21.396Z,11.27
2018-05-01T13:32:48.682Z,11.27
2018-05-01T13:34:15.069Z,11.27
2018-05-01T13:35:42.213Z,11.28
2018-05-01T13:37:09.576Z,11.26
2018-05-01T13:38:36.695Z,11.24
2018-05-01T13:40:04.186Z,11.24
2018-05-01T13:41:30.204Z,11.22
2018-05-01T13:42:58.551Z,11.20
2018-05-01T13:44:25.688Z,11.20
2018-05-01T13:45:51.992Z,11.18
2018-05-01T13:47:19.074Z,11.17
2018-05-01T13:48:47.486Z,11.15
2018-05-01T13:50:14.525Z,11.15
2018-05-01T13:51:40.723Z,11.16
2018-05-01T13:53:08.885Z,11.16
2018-05-01T13:54:35.236Z,11.16
2018-05-01T13:56:03.677Z,11.17
2018-05-01T13:57:30.022Z,11.16
2018-05-01T13:58:57.068Z,11.16
2018-05-01T14:00:24.424Z,11.16
2018-05-01T14:01:51.674Z,11.17
2018-05-01T14:03:18.982Z,11.16
2018-05-01T14:04:47.170Z,11.15
2018-05-01T14:06:13.263Z,11.14
2018-05-01T14:07:40.704Z,11.16
2018-05-01T14:09:08.128Z,11.17
2018-05-01T14:10:36.168Z,11.17
2018-05-01T14:12:02.450Z,11.18
2018-05-01T14:13:29.807Z,11.19
2018-05-01T14:14:57.105Z,11.19
2018-05-01T14:16:25.551Z,11.20
2018-05-01T14:17:51.517Z,11.21
2018-05-01T14:19:19.764Z,11.21
2018-05-01T14:20:46.091Z,11.21
2018-05-01T14:22:13.300Z,11.22
2018-05-01T14:23:41.697Z,11.20
2018-05-01T14:25:08.661Z,11.19
2018-05-01T14:26:34.867Z,11.19
2018-05-01T14:28:03.052Z,11.19
2018-05-01T14:29:29.412Z,11.18
2018-05-01T14:30:56.666Z,11.17
2018-05-01T14:32:24.842Z,11.15
2018-05-01T14:33:52.094Z,11.14
2018-05-01T14:35:18.426Z,11.11
2018-05-01T14:36:46.577Z,11.08
2018-05-01T14:38:12.763Z,11.05
2018-05-01T14:39:40.217Z,11.04
2018-05-01T14:41:08.404Z,11.04
2018-05-01T14:42:34.301Z,11.03
2018-05-01T14:44:01.681Z,11.03
2018-05-01T14:45:28.826Z,11.03
2018-05-01T14:46:55.832Z,11.04
2018-05-01T14:48:23.014Z,11.06
2018-05-01T14:49:50.165Z,11.06
2018-05-01T14:51:18.340Z,11.07
2018-05-01T14:52:44.642Z,11.08
2018-05-01T14:54:12.937Z,11.08
2018-05-01T14:55:40.220Z,11.08
2018-05-01T14:57:07.612Z,11.09
2018-05-01T14:58:33.574Z,11.13
2018-05-01T15:00:02.052Z,11.18
2018-05-01T15:01:28.342Z,11.22
2018-05-01T15:02:55.650Z,11.28
2018-05-01T15:04:22.808Z,11.31
2018-05-01T15:05:56.091Z,11.32
2018-05-01T15:07:18.305Z,11.32
2018-05-01T15:08:44.554Z,11.33
2018-05-01T15:10:11.865Z,11.36
2018-05-01T15:11:40.145Z,11.39
2018-05-01T15:13:06.041Z,11.42
2018-05-01T15:14:34.351Z,11.44
2018-05-01T15:16:01.764Z,11.44
2018-05-01T15:17:29.191Z,11.41
2018-05-01T15:18:55.266Z,11.39
2018-05-01T15:20:23.553Z,11.35
2018-05-01T15:21:49.845Z,11.31
2018-05-01T15:23:17.166Z,11.30
2018-05-01T15:24:45.348Z,11.29
2018-05-01T15:26:11.637Z,11.31
2018-05-01T15:27:39.940Z,11.29
2018-05-01T15:29:06.407Z,11.28
2018-05-01T15:30:33.759Z,11.27
2018-05-01T15:32:02.167Z,11.26
2018-05-01T15:33:28.337Z,11.24
2018-05-01T15:34:56.641Z,11.24
2018-05-01T15:36:22.917Z,11.21
2018-05-01T15:37:51.133Z,11.18
2018-05-01T15:39:17.581Z,11.17
2018-05-01T15:40:46.118Z,11.19
2018-05-01T15:42:12.648Z,11.19
2018-05-01T15:43:38.899Z,11.14
2018-05-01T15:45:06.346Z,11.12
2018-05-01T15:46:33.622Z,11.10
2018-05-01T15:48:00.984Z,11.06
2018-05-01T15:49:28.189Z,11.05
2018-05-01T15:50:55.412Z,10.99
2018-05-01T15:52:23.570Z,10.97
2018-05-01T15:53:49.815Z,10.94
2018-05-01T15:55:18.216Z,10.92
2018-05-01T15:56:44.725Z,10.91
2018-05-01T15:58:13.035Z,10.91
2018-05-01T15:59:39.362Z,10.89
2018-05-01T16:01:06.664Z,10.89
2018-05-01T16:02:34.023Z,10.86
2018-05-01T16:04:02.074Z,10.84
2018-05-01T16:05:28.318Z,10.82
2018-05-01T16:06:56.715Z,10.81
2018-05-01T16:08:24.025Z,10.81
2018-05-01T16:09:50.271Z,10.82
2018-05-01T16:11:18.086Z,10.83
2018-05-01T16:12:45.349Z,10.82
2018-05-01T16:14:12.816Z,10.80
2018-05-01T16:15:39.032Z,10.79
2018-05-01T16:17:06.192Z,10.78
2018-05-01T16:18:33.564Z,10.78
2018-05-01T16:20:00.869Z,10.78
2018-05-01T16:21:28.175Z,10.77
2018-05-01T16:22:54.983Z,10.78
2018-05-01T16:24:23.334Z,10.76
2018-05-01T16:25:49.561Z,10.77
2018-05-01T16:27:16.955Z,10.77
2018-05-01T16:28:45.314Z,10.78
2018-05-01T16:30:11.306Z,10.76
2018-05-01T16:31:38.711Z,10.76
2018-05-01T16:33:06.937Z,10.75
2018-05-01T16:34:33.170Z,10.74
2018-05-01T16:36:00.395Z,10.72
2018-05-01T16:37:27.786Z,10.69
2018-05-01T16:38:56.105Z,10.67
2018-05-01T16:40:22.363Z,10.67
2018-05-01T16:41:50.445Z,10.64
2018-05-01T16:43:17.884Z,10.61
2018-05-01T16:44:44.322Z,10.58
2018-05-01T16:46:11.361Z,10.55
2018-05-01T16:47:39.773Z,10.55
2018-05-01T16:49:06.998Z,10.54
2018-05-01T16:50:33.424Z,10.51
2018-05-01T16:52:00.039Z,10.50
2018-05-01T16:53:28.364Z,10.50
2018-05-01T16:54:54.741Z,10.50
2018-05-01T16:56:23.022Z,10.51
2018-05-01T16:57:49.235Z,10.51
2018-05-01T16:59:16.707Z,10.48
2018-05-01T17:00:44.109Z,10.43
2018-05-01T17:02:12.444Z,10.40
2018-05-01T17:03:38.671Z,10.41
2018-05-01T17:05:06.092Z,10.40
2018-05-01T17:06:33.523Z,10.38
2018-05-01T17:08:01.298Z,10.35
2018-05-01T17:09:28.615Z,10.35
2018-05-01T17:10:55.912Z,10.37
2018-05-01T17:12:23.070Z,10.37
2018-05-01T17:13:50.239Z,10.38
2018-05-01T17:15:16.978Z,10.40
2018-05-01T17:16:44.283Z,10.40
2018-05-01T17:18:11.624Z,10.40
2018-05-01T17:21:05.282Z,10.43
2018-05-01T17:22:32.599Z,10.43
2018-05-01T17:24:00.825Z,10.42
2018-05-01T17:25:29.907Z,10.32
2018-05-01T17:26:55.107Z,10.28
2018-05-01T17:28:22.173Z,10.21
2018-05-01T17:29:49.294Z,10.09
2018-05-01T17:31:15.690Z,10.03
2018-05-01T17:32:42.673Z,10.02
2018-05-01T17:34:09.709Z,9.98
2018-05-01T17:35:37.416Z,9.96
2018-05-01T17:37:04.766Z,9.93
2018-05-01T17:38:32.110Z,9.92
2018-05-01T17:39:58.371Z,9.90
2018-05-01T17:41:25.701Z,9.91
2018-05-01T17:42:53.585Z,9.93
2018-05-01T17:44:20.662Z,9.93
2018-05-01T17:45:47.008Z,9.94
2018-05-01T17:47:13.979Z,9.91
2018-05-01T17:48:44.209Z,9.90
2018-05-01T17:50:08.133Z,9.91
2018-05-01T17:51:35.643Z,9.91
2018-05-01T17:53:03.971Z,9.93
2018-05-01T17:54:31.152Z,9.93
2018-05-01T17:55:57.356Z,9.94
2018-05-01T17:57:24.575Z,9.94
2018-05-01T17:58:51.806Z,9.90
2018-05-01T18:00:24.995Z,9.87
2018-05-01T18:01:46.367Z,9.88
2018-05-01T18:03:14.823Z,9.90
2018-05-01T18:04:41.024Z,9.88
2018-05-01T18:06:08.413Z,9.85
2018-05-01T18:07:36.673Z,9.85
2018-05-01T18:09:03.969Z,9.84
2018-05-01T18:10:30.163Z,9.82
2018-05-01T18:11:57.471Z,9.80
2018-05-01T18:13:24.558Z,9.77
2018-05-01T18:14:52.993Z,9.75
2018-05-01T18:16:18.821Z,9.72
2018-05-01T18:17:46.080Z,9.74
2018-05-01T18:19:14.290Z,9.75
2018-05-01T18:20:41.452Z,9.74
2018-05-01T18:22:07.833Z,9.75
2018-05-01T18:23:35.058Z,9.78
2018-05-01T18:25:02.510Z,9.81
2018-05-01T18:26:30.361Z,9.83
2018-05-01T18:27:57.743Z,9.85
2018-05-01T18:29:24.979Z,9.86
2018-05-01T18:30:51.404Z,9.85
2018-05-01T18:32:19.530Z,9.87
2018-05-01T18:33:45.915Z,9.90
2018-05-01T18:35:13.046Z,9.93
2018-05-01T18:36:40.332Z,9.94
2018-05-01T18:38:07.771Z,9.96
2018-05-01T18:39:36.173Z,9.97
2018-05-01T18:41:02.466Z,10.00
2018-05-01T18:42:29.780Z,10.02
2018-05-01T18:43:58.104Z,10.04
2018-05-01T18:45:24.425Z,10.06
2018-05-01T18:46:51.769Z,10.07
2018-05-01T18:48:19.570Z,10.08